Kobuk Valley National Park, AK

6:15 PM AKDT on September 25, 2016 (GMT -0800)
Baker Memorial | | Change Station
Active Advisory: Winter Weather Advisory

Elev 151 ft 66.98 °N, 160.44 °W | Updated 14 minutes ago

Light Snow
Light Snow
36 °F
Feels Like 29 °F
N
9
Wind Variable Wind from East

Today
High -- | Low -- °F
--% Chance of Precip.
Yesterday
High -- | Low -- °F
Precip. -- in
Pressure 29.80 in
Visibility 9.0 miles
Clouds Mostly Cloudy 1200 ft
Overcast 2000 ft
Windchill 29 °F
Dew Point 34 °F
Humidity 93%
Rainfall 0.01 in
Snow Depth Not available.
8:35 AM 8:27 PM
Waning Crescent, 23% visible
SPECI PAIK 260201Z AUTO 10008KT 9SM -SN BKN012 OVC020 02/01 A2980 RMK AO2 RAB0144E0155SNB0115 P0002 FZRANO
Pressure 29.80 in
Visibility 9.0 miles
Clouds Mostly Cloudy 1200 ft
Overcast 2000 ft
Windchill 29 °F
Dew Point 34 °F
Humidity 93%
Rainfall 0.01 in
Snow Depth Not available.
8:35 AM 8:27 PM
Waning Crescent, 23% visible
SPECI PAIK 260201Z AUTO 10008KT 9SM -SN BKN012 OVC020 02/01 A2980 RMK AO2 RAB0144E0155SNB0115 P0002 FZRANO

10-Day Weather Forecast

Almanac

Astronomy

Sep. 25, 2016 Rise Set
Actual Time
Civil Twilight
Nautical Twilight
Astronomical Twilight
Moon
Length of Visible Light
Length of Day
Tomorrow will be .
, % of the Moon is Illuminated

Today's Extremes

State Highs State Lows

Community

WunderPhotos

Upload Photos

1,941,811 photos uploaded!

WunderBlog® & News

Nearby

Air Quality

  Air Quality AQ Index Pollutant
Not available.

Snow Depth

Station Depth Elevation

Earthquake Activity

City Distance Mag. Time & Date
Minimum magnitude displayed is 2.5.

Coastal Water Temperatures

Place Temperature

Stations

Nearby Weather Stations

Station Location Temp. Windchill Dew Point Humidity Wind Precip. Elev Updated Type
                   

Watches & Warnings

Winter Weather Advisory
Issued: 1:54 PM AKDT Sep. 25, 2016 – National Weather Service

... Winter Weather Advisory in effect from 6 PM this evening to 6
PM akdt Monday...

The National Weather Service in Fairbanks has issued a Winter
Weather Advisory for snow... which is in effect from 6 PM this
evening to 6 PM akdt Monday.

* Location... north of Noatak

* snow... 4 to 8 inches.

* Timing... snow will increase this evening and continue through
early Monday evening.

* Impacts... visibility may be greatly reduced. Travel and outdoor
activities will be difficult.

Precautionary/preparedness actions...

A Winter Weather Advisory means that one or more winter weather
hazards are expected to cause travel difficulties.